Time;durP1;ratioP1;P1;durP2;ratioP2;P2;SDS_P1;SDS_P2;PMS_P1;PMS_P2;Temp;Humidity;BMP_temperature;BMP_pressure;BME280_temperature;BME280_humidity;BME280_pressure;Samples;Min_cycle;Max_cycle;Signal;HPM_P1;HPM_P2
2021/05/11 00:01:07;;;;;;;1.50;1.10;;;;;;;24.98;33.97;95193.16;4775988;30;20061;-68
2021/05/11 00:03:33;;;;;;;2.65;1.63;;;;;;;24.96;33.44;95195.66;4746944;30;20048;-68
2021/05/11 00:05:58;;;;;;;1.60;1.10;;;;;;;24.92;33.49;95195.19;4747743;30;20513;-68
2021/05/11 00:08:23;;;;;;;2.67;1.40;;;;;;;24.95;33.63;95199.63;4747572;30;20032;-68
2021/05/11 00:10:49;;;;;;;1.40;1.10;;;;;;;24.93;33.69;95196.69;4751131;30;20097;-69
2021/05/11 00:13:14;;;;;;;1.70;1.15;;;;;;;24.95;33.85;95199.63;4750055;30;20047;-69
2021/05/11 00:15:40;;;;;;;3.35;1.20;;;;;;;24.92;33.39;95195.19;4751203;30;20421;-69
2021/05/11 00:18:05;;;;;;;2.28;1.35;;;;;;;24.92;33.96;95200.66;4764200;30;20024;-69
2021/05/11 00:20:31;;;;;;;1.73;1.17;;;;;;;24.91;33.33;95193.72;4749810;30;20032;-69
2021/05/11 00:22:56;;;;;;;1.50;1.30;;;;;;;24.92;34.12;95195.19;4750818;30;20398;-69
2021/05/11 00:25:22;;;;;;;1.55;1.30;;;;;;;24.91;33.63;95204.63;4748747;30;20047;-69
2021/05/11 00:27:47;;;;;;;1.67;1.20;;;;;;;24.86;33.91;95197.25;4749363;30;20485;-68
2021/05/11 00:30:13;;;;;;;1.88;1.40;;;;;;;24.87;33.38;95204.22;4750702;30;20040;-68
2021/05/11 00:32:39;;;;;;;2.63;1.20;;;;;;;24.88;34.08;95194.75;4750768;30;20457;-68
2021/05/11 00:35:04;;;;;;;1.60;1.30;;;;;;;24.88;33.94;95183.81;4750563;30;20421;-68
2021/05/11 00:37:30;;;;;;;1.75;1.20;;;;;;;24.87;34.14;95193.28;4750722;30;20078;-68
2021/05/11 00:39:55;;;;;;;1.73;1.30;;;;;;;24.85;33.65;95189.56;4749544;30;20039;-68
2021/05/11 00:42:21;;;;;;;2.08;1.25;;;;;;;24.86;33.76;95196.53;4750337;30;20032;-68
2021/05/11 00:44:46;;;;;;;1.73;1.23;;;;;;;24.71;33.97;95179.06;4750454;30;20028;-68
2021/05/11 00:47:12;;;;;;;1.90;1.35;;;;;;;24.82;33.56;95184.41;4778559;30;20032;-68
2021/05/11 00:49:37;;;;;;;2.28;1.25;;;;;;;24.82;33.70;95191.34;4750656;30;20488;-68
2021/05/11 00:52:04;;;;;;;1.67;1.20;;;;;;;24.80;34.26;95193.13;4749807;30;20949;-68
2021/05/11 00:54:30;;;;;;;2.28;1.30;;;;;;;24.60;34.38;95162.81;4738006;30;20043;-68
2021/05/11 00:56:55;;;;;;;1.52;1.20;;;;;;;24.81;34.21;95188.38;4748467;30;20032;-68
2021/05/11 00:59:25;;;;;;;1.67;1.17;;;;;;;24.61;33.82;95158.81;4734599;30;20028;-68
2021/05/11 01:01:50;;;;;;;1.67;1.33;;;;;;;24.76;34.10;95170.09;4748928;30;20119;-69
2021/05/11 01:04:16;;;;;;;1.85;1.30;;;;;;;24.77;33.85;95177.00;4750116;30;20103;-69
2021/05/11 01:06:41;;;;;;;1.92;1.25;;;;;;;24.78;34.38;95173.03;4778450;30;20083;-70
2021/05/11 01:09:07;;;;;;;2.47;1.75;;;;;;;24.75;34.20;95174.06;4743057;30;20074;-69
2021/05/11 01:11:33;;;;;;;2.08;1.38;;;;;;;24.77;34.21;95177.00;4750022;30;20490;-68
2021/05/11 01:13:58;;;;;;;1.60;1.20;;;;;;;24.74;34.48;95172.56;4750517;30;20036;-68
2021/05/11 01:16:26;;;;;;;1.38;1.17;;;;;;;24.72;33.88;95175.09;4750226;30;20071;-69
2021/05/11 01:18:54;;;;;;;1.85;1.40;;;;;;;24.73;33.89;95176.56;4749783;30;20517;-69
2021/05/11 01:26:42;;;;;;;1.73;1.10;;;;;;;24.71;34.38;95168.13;4746404;30;20032;-69
2021/05/11 01:48:35;;;;;;;1.48;1.23;;;;;;;24.63;34.32;95157.03;4749554;30;20360;-69
2021/05/11 01:58:51;;;;;;;1.95;1.23;;;;;;;24.61;34.70;95164.28;4749324;30;20040;-69
2021/05/11 02:18:12;;;;;;;2.10;1.23;;;;;;;24.60;34.38;95140.97;4748736;30;20067;-69
2021/05/11 02:23:27;;;;;;;1.45;1.10;;;;;;;24.54;34.25;95151.19;4748483;30;20039;-69
2021/05/11 02:25:53;;;;;;;1.48;1.15;;;;;;;24.60;33.84;95151.88;4748528;30;20036;-69
2021/05/11 02:28:18;;;;;;;1.65;1.20;;;;;;;24.57;34.24;95142.75;4748229;30;20371;-68
2021/05/11 02:30:44;;;;;;;2.95;1.17;;;;;;;24.54;34.56;95143.00;4748725;30;20039;-69
2021/05/11 02:33:09;;;;;;;1.95;1.27;;;;;;;24.58;34.19;95138.00;4741677;30;20489;-69
2021/05/11 02:35:35;;;;;;;1.38;1.10;;;;;;;24.56;33.88;95141.25;4731204;30;20094;-69
2021/05/11 02:38:01;;;;;;;1.70;1.27;;;;;;;24.58;34.30;95138.00;4730816;30;20082;-69
2021/05/11 02:40:26;;;;;;;1.42;1.00;;;;;;;24.61;34.12;95136.97;4731136;30;20024;-69
2021/05/11 02:42:54;;;;;;;1.20;1.02;;;;;;;24.58;34.17;95132.56;4730721;30;20033;-69
2021/05/11 02:45:20;;;;;;;1.77;1.17;;;;;;;24.58;34.44;95133.28;4742736;30;20043;-68
2021/05/11 02:47:49;;;;;;;1.65;1.17;;;;;;;24.56;34.34;95135.06;4748176;30;20032;-69
2021/05/11 02:50:25;;;;;;;1.80;1.33;;;;;;;24.57;34.20;95136.53;4731068;30;20069;-69
2021/05/11 02:52:50;;;;;;;2.35;1.25;;;;;;;24.57;34.64;95136.53;4730656;30;20041;-69
2021/05/11 02:55:16;;;;;;;1.70;1.15;;;;;;;24.51;34.29;95133.13;4736704;30;20050;-69
2021/05/11 02:57:42;;;;;;;2.45;1.20;;;;;;;24.55;34.22;95139.03;4748015;30;20040;-69
2021/05/11 03:00:09;;;;;;;1.88;1.20;;;;;;;24.57;34.74;95141.97;4747176;30;20032;-70
2021/05/11 03:02:34;;;;;;;1.70;1.30;;;;;;;24.56;34.63;95135.78;4730384;30;20061;-67
2021/05/11 03:04:59;;;;;;;1.67;1.27;;;;;;;24.53;34.68;95141.56;4743369;30;20029;-68
2021/05/11 03:07:26;;;;;;;1.92;1.25;;;;;;;24.53;34.36;95136.09;4756036;30;20039;-68
2021/05/11 03:09:51;;;;;;;2.53;1.27;;;;;;;24.53;34.28;95136.09;4748179;30;20051;-68
2021/05/11 03:12:16;;;;;;;1.77;1.30;;;;;;;24.54;34.28;95134.81;4746859;30;20028;-68
2021/05/11 03:14:42;;;;;;;1.60;1.20;;;;;;;24.46;34.55;95123.00;4747798;30;20029;-68
2021/05/11 03:17:07;;;;;;;2.13;1.30;;;;;;;24.54;34.79;95137.56;4746495;30;20044;-68
2021/05/11 03:19:33;;;;;;;1.50;1.13;;;;;;;24.33;34.45;95101.06;4747695;30;20117;-68
2021/05/11 03:21:58;;;;;;;1.80;1.20;;;;;;;24.52;34.25;95131.88;4746878;30;20052;-68
2021/05/11 03:24:24;;;;;;;2.08;1.40;;;;;;;24.50;34.98;95126.19;4747303;30;20066;-68
2021/05/11 03:26:50;;;;;;;2.35;1.35;;;;;;;24.50;34.71;95131.66;4747499;30;20567;-69
2021/05/11 03:29:16;;;;;;;2.05;1.20;;;;;;;24.50;34.41;95131.66;4747866;30;20462;-69
2021/05/11 03:31:41;;;;;;;1.67;1.23;;;;;;;24.36;34.54;95102.75;4744502;30;20040;-66
2021/05/11 03:34:07;;;;;;;1.40;1.10;;;;;;;24.54;34.93;95132.09;4733831;30;20375;-68
2021/05/11 03:36:32;;;;;;;1.55;1.20;;;;;;;24.57;35.04;95128.34;4731781;30;20116;-69
2021/05/11 03:39:01;;;;;;;2.38;1.10;;;;;;;24.56;34.84;95129.59;4734639;30;20500;-70
2021/05/11 03:41:30;;;;;;;1.58;1.27;;;;;;;24.58;34.49;95127.81;4747753;30;20051;-73
2021/05/11 03:44:02;;;;;;;1.60;1.20;;;;;;;24.59;35.05;95123.84;4750378;30;20394;-73
2021/05/11 03:46:27;;;;;;;1.40;1.10;;;;;;;24.61;35.37;95131.53;4731439;30;20532;-72
2021/05/11 03:48:53;;;;;;;1.63;1.20;;;;;;;24.52;35.17;95129.16;4736227;30;20040;-72
2021/05/11 03:51:18;;;;;;;1.70;1.15;;;;;;;24.58;35.12;95132.56;4740258;30;20721;-72
2021/05/11 03:53:44;;;;;;;1.75;1.30;;;;;;;24.61;35.40;95131.53;4744337;30;20043;-71
2021/05/11 03:56:09;;;;;;;2.30;1.30;;;;;;;24.68;35.39;95125.47;4742777;30;20032;-70
2021/05/11 03:58:35;;;;;;;1.48;1.02;;;;;;;24.73;35.00;95130.88;4705653;29;20064;-70
2021/05/11 04:01:00;;;;;;;1.60;1.23;;;;;;;24.80;35.45;95132.28;4738951;30;20394;-71
2021/05/11 04:03:26;;;;;;;2.20;1.20;;;;;;;24.87;35.21;95133.19;4739367;30;20135;-71
2021/05/11 04:05:54;;;;;;;2.90;1.20;;;;;;;25.00;34.94;95129.81;4740010;30;20067;-70
2021/05/11 04:11:58;;;;;;;2.33;1.20;;;;;;;25.17;35.05;95128.34;4746361;30;20159;-72
2021/05/11 04:16:25;;;;;;;2.05;1.17;;;;;;;25.35;34.61;95143.97;4730987;30;20060;-71
2021/05/11 04:18:51;;;;;;;2.50;1.20;;;;;;;25.41;34.24;95126.25;4743913;30;20497;-73
2021/05/11 04:21:17;;;;;;;2.70;1.50;;;;;;;25.37;34.01;95131.25;4746201;30;20020;-75
2021/05/11 04:23:43;;;;;;;3.10;1.58;;;;;;;25.37;34.25;95125.06;4745801;30;20063;-74
2021/05/11 04:26:12;;;;;;;2.03;1.30;;;;;;;25.53;34.17;95132.25;4746379;30;20043;-74
2021/05/11 04:28:38;;;;;;;1.90;1.30;;;;;;;25.69;33.84;95128.56;4745179;30;20413;-74
2021/05/11 04:31:04;;;;;;;1.33;1.20;;;;;;;25.79;34.37;95126.94;4745436;30;20036;-74
2021/05/11 04:33:30;;;;;;;3.50;1.27;;;;;;;25.97;33.97;95130.31;4737590;30;20525;-72
2021/05/11 04:35:55;;;;;;;2.00;1.40;;;;;;;25.97;33.58;95126.84;4735741;30;20036;-72
2021/05/11 04:38:22;;;;;;;2.17;1.40;;;;;;;26.07;33.92;95114.97;4739802;30;20509;-73
2021/05/11 04:40:48;;;;;;;2.42;1.40;;;;;;;26.06;33.59;95118.25;4736363;30;20116;-72
2021/05/11 04:43:13;;;;;;;2.28;1.02;;;;;;;26.22;33.86;95120.69;4741776;30;20026;-71
2021/05/11 04:45:39;;;;;;;2.05;1.20;;;;;;;26.30;33.14;95121.56;4744014;30;20036;-72
2021/05/11 04:48:04;;;;;;;2.72;1.45;;;;;;;26.41;33.19;95115.88;4743496;30;20033;-72
2021/05/11 04:50:30;;;;;;;3.38;1.38;;;;;;;26.44;33.38;95125.75;4755326;30;20418;-74
2021/05/11 04:52:58;;;;;;;2.30;1.30;;;;;;;26.36;33.43;95086.59;4732745;30;20056;-74
2021/05/11 04:55:24;;;;;;;2.22;1.60;;;;;;;26.65;32.87;95110.16;4750094;30;20035;-75
2021/05/11 04:57:49;;;;;;;3.38;1.38;;;;;;;26.73;33.23;95109.00;4737610;30;20020;-75
2021/05/11 05:00:16;;;;;;;1.75;1.30;;;;;;;26.79;32.93;95112.38;4750223;30;20035;-76
2021/05/11 05:02:44;;;;;;;4.05;1.40;;;;;;;26.76;32.43;95108.69;4734604;30;20052;-75
2021/05/11 05:05:10;;;;;;;4.15;1.20;;;;;;;26.77;32.61;95115.63;4736272;30;20123;-75
2021/05/11 05:07:36;;;;;;;3.45;1.70;;;;;;;26.48;31.10;95109.75;4735530;30;20040;-74
2021/05/11 05:10:02;;;;;;;1.75;1.38;;;;;;;26.57;32.33;95107.31;4736946;30;20046;-73
2021/05/11 05:12:27;;;;;;;2.25;1.35;;;;;;;26.67;32.50;95110.41;4734307;30;20449;-73
2021/05/11 05:14:53;;;;;;;2.63;1.50;;;;;;;26.89;31.77;95111.44;4736900;30;20024;-73
2021/05/11 05:17:18;;;;;;;2.72;1.50;;;;;;;26.94;32.17;95113.31;4733221;30;20043;-73
2021/05/11 05:19:44;;;;;;;2.60;1.48;;;;;;;26.99;32.29;95112.44;4738953;30;20036;-73
2021/05/11 05:22:09;;;;;;;4.72;2.05;;;;;;;27.03;28.89;95109.41;4734878;30;20035;-73
2021/05/11 05:24:43;;;;;;;4.55;2.10;;;;;;;26.59;29.82;95104.81;4738870;30;20029;-72
2021/05/11 05:29:37;;;;;;;8.90;2.50;;;;;;;26.55;31.68;95048.88;4749109;30;20128;-76
2021/05/11 05:32:03;;;;;;;3.97;1.73;;;;;;;26.81;32.45;95110.56;4733167;30;20048;-76
2021/05/11 05:34:28;;;;;;;6.43;1.55;;;;;;;26.91;33.01;95103.41;4733751;30;20117;-77
2021/05/11 05:36:54;;;;;;;3.75;1.63;;;;;;;27.07;36.58;95110.56;4739473;30;20737;-75
2021/05/11 05:39:21;;;;;;;3.35;1.50;;;;;;;27.10;35.16;95120.47;4751247;30;20345;-75
2021/05/11 05:41:47;;;;;;;2.65;1.35;;;;;;;27.09;33.92;95102.53;4738613;30;20131;-74
2021/05/11 05:44:12;;;;;;;7.57;2.05;;;;;;;27.15;34.32;95100.41;4734232;30;20028;-74
2021/05/11 05:46:37;;;;;;;3.17;1.65;;;;;;;27.22;33.89;95099.75;4736298;30;20036;-75
2021/05/11 05:49:03;;;;;;;2.70;1.40;;;;;;;27.22;34.04;95094.28;4734324;30;20418;-73
2021/05/11 05:51:29;;;;;;;5.97;1.70;;;;;;;27.19;32.47;95105.56;4764851;30;20047;-74
2021/05/11 05:53:54;;;;;;;4.63;1.42;;;;;;;27.24;33.72;95096.47;4748084;30;20035;-75
2021/05/11 05:56:20;;;;;;;3.60;1.30;;;;;;;27.28;33.55;95097.63;4737543;30;20028;-74
2021/05/11 05:58:45;;;;;;;4.07;1.45;;;;;;;27.33;34.09;95105.72;4748858;30;20040;-73
2021/05/11 06:01:12;;;;;;;3.80;1.30;;;;;;;27.39;33.67;95102.84;4747167;30;20039;-71
2021/05/11 06:03:51;;;;;;;2.05;1.42;;;;;;;27.49;33.87;95095.66;4740983;30;20136;-71
2021/05/11 06:06:16;;;;;;;3.70;1.30;;;;;;;27.51;33.71;95093.84;4735178;30;20033;-72
2021/05/11 06:08:43;;;;;;;3.88;1.40;;;;;;;27.56;33.24;95105.97;4735324;30;20032;-71
2021/05/11 06:13:57;;;;;;;4.25;1.90;;;;;;;27.22;32.00;95105.25;4734029;30;20047;-74
2021/05/11 06:19:07;;;;;;;2.80;1.70;;;;;;;27.51;32.71;95098.63;4744936;30;20140;-69
2021/05/11 06:21:33;;;;;;;2.65;1.50;;;;;;;27.64;32.75;95095.78;4776684;30;20524;-70
2021/05/11 06:23:58;;;;;;;10.15;3.97;;;;;;;27.60;28.47;95085.16;4745127;30;20045;-73
2021/05/11 06:26:24;;;;;;;8.07;3.15;;;;;;;27.05;29.34;95084.94;4737759;30;20036;-71
2021/05/11 06:28:49;;;;;;;5.60;2.30;;;;;;;26.87;30.46;95086.50;4745455;30;20858;-69
2021/05/11 06:31:15;;;;;;;8.07;2.38;;;;;;;26.91;30.92;95081.47;4739154;30;20509;-67
2021/05/11 06:33:40;;;;;;;9.82;2.30;;;;;;;26.74;30.98;95082.34;4749641;30;20062;-68
2021/05/11 06:36:06;;;;;;;5.97;2.40;;;;;;;26.56;31.13;95078.47;4735343;30;20043;-68
2021/05/11 06:38:32;;;;;;;4.13;2.17;;;;;;;26.52;30.37;95082.81;4732280;30;20032;-68
2021/05/11 06:40:58;;;;;;;7.63;2.58;;;;;;;26.47;30.87;95080.88;4732157;30;20061;-68
2021/05/11 06:43:29;;;;;;;4.30;2.70;;;;;;;26.41;30.28;95078.28;4743670;30;20029;-68
2021/05/11 06:48:45;;;;;;;6.43;2.50;;;;;;;26.30;30.73;95083.22;4733861;30;20066;-68
2021/05/11 06:53:37;;;;;;;5.13;2.58;;;;;;;26.19;30.77;95077.19;4730820;30;20437;-68
2021/05/11 06:56:03;;;;;;;3.88;2.20;;;;;;;26.07;30.60;95075.91;4739972;30;20039;-68
2021/05/11 06:58:29;;;;;;;5.93;2.10;;;;;;;26.00;31.02;95076.53;4746182;30;20043;-68
2021/05/11 07:00:55;;;;;;;5.40;2.42;;;;;;;25.88;31.20;95076.00;4739534;30;20032;-69
2021/05/11 07:03:20;;;;;;;4.50;2.28;;;;;;;25.88;30.69;95070.53;4734508;30;20084;-68
2021/05/11 07:05:48;;;;;;;7.22;2.58;;;;;;;25.79;30.79;95068.19;4740831;30;20047;-67
2021/05/11 07:08:16;;;;;;;4.38;2.15;;;;;;;25.77;31.26;95063.78;4757497;30;20041;-68
2021/05/11 07:10:47;;;;;;;5.40;2.33;;;;;;;25.85;31.56;95068.84;4731054;30;20040;-68
2021/05/11 07:13:13;;;;;;;4.28;2.35;;;;;;;25.79;30.97;95064.00;4731501;30;20056;-68
2021/05/11 07:15:43;;;;;;;4.57;2.38;;;;;;;25.65;31.05;95067.94;4736407;30;20132;-68
2021/05/11 07:18:18;;;;;;;3.40;2.30;;;;;;;25.61;32.04;95070.25;4748181;30;20032;-68
2021/05/11 07:20:45;;;;;;;5.38;2.40;;;;;;;25.62;31.35;95060.75;4732531;30;20036;-67
2021/05/11 07:23:15;;;;;;;5.13;2.50;;;;;;;25.61;31.99;95062.03;4743631;30;20107;-68
2021/05/11 07:28:43;;;;;;;5.25;2.72;;;;;;;25.50;31.52;95062.19;4732750;30;20071;-68
2021/05/11 07:31:09;;;;;;;5.28;2.70;;;;;;;25.40;31.45;95052.94;4730508;30;20025;-68
2021/05/11 07:33:39;;;;;;;4.97;2.83;;;;;;;25.34;31.90;95049.56;4731582;30;20032;-68
2021/05/11 07:36:05;;;;;;;5.93;3.00;;;;;;;25.36;32.10;95049.75;4738752;30;20036;-68
2021/05/11 07:38:30;;;;;;;4.68;2.70;;;;;;;25.35;32.33;95048.28;4731109;30;20040;-68
2021/05/11 07:40:56;;;;;;;7.40;3.17;;;;;;;25.28;32.46;95046.16;4736693;30;20498;-68
2021/05/11 07:43:23;;;;;;;6.45;2.80;;;;;;;25.24;32.55;95055.94;4730115;30;20044;-68
2021/05/11 08:17:35;;;;;;;5.32;2.72;;;;;;;25.14;33.61;95009.13;4732342;30;20039;-70
2021/05/11 08:20:18;;;;;;;3.40;2.30;;;;;;;25.13;33.22;95002.16;4732624;30;20040;-69
2021/05/11 08:27:58;;;;;;;4.43;2.42;;;;;;;24.90;33.46;94957.31;4733267;30;20098;-69
2021/05/11 08:30:24;;;;;;;6.20;2.30;;;;;;;25.25;33.71;95014.41;4737260;30;20040;-69
2021/05/11 08:32:49;;;;;;;6.03;3.08;;;;;;;25.22;33.52;94998.31;4733835;30;20063;-69
2021/05/11 08:35:15;;;;;;;6.88;2.83;;;;;;;25.25;33.30;95008.22;4740246;30;20081;-69
2021/05/11 08:37:40;;;;;;;7.28;3.38;;;;;;;25.09;33.75;94979.88;4739993;30;20542;-68
2021/05/11 08:40:06;;;;;;;5.72;2.80;;;;;;;25.23;33.76;94989.59;4736133;30;20024;-69
2021/05/11 08:42:32;;;;;;;8.18;2.90;;;;;;;25.27;33.54;94995.47;4732469;30;20103;-69
2021/05/11 08:45:08;;;;;;;6.18;2.67;;;;;;;25.27;33.60;94990.00;4737049;30;20547;-68
2021/05/11 08:47:35;;;;;;;4.82;2.50;;;;;;;25.29;33.07;94992.97;4733265;30;20060;-68
2021/05/11 08:50:01;;;;;;;8.45;2.92;;;;;;;25.29;33.69;94992.97;4748731;30;20028;-69
2021/05/11 08:52:47;;;;;;;5.95;2.55;;;;;;;25.29;33.12;94987.50;4737219;30;20016;-69
2021/05/11 08:59:52;;;;;;;5.07;2.30;;;;;;;25.26;33.43;94977.63;4735577;30;20496;-68
2021/05/11 09:06:51;;;;;;;3.75;2.20;;;;;;;25.39;32.83;94969.44;4734407;30;20102;-67
2021/05/11 09:09:39;;;;;;;4.78;2.30;;;;;;;25.42;33.21;94979.31;4738704;30;20122;-67
2021/05/11 09:15:42;;;;;;;4.75;2.38;;;;;;;25.54;33.74;94964.19;4734743;30;20151;-68
2021/05/11 09:25:53;;;;;;;5.18;2.00;;;;;;;25.88;31.86;94952.88;4739670;30;20062;-68
2021/05/11 09:31:21;;;;;;;5.47;2.30;;;;;;;26.11;31.75;94951.16;4741682;30;20055;-68
2021/05/11 10:31:22;;;;;;;2.15;1.27;;;;;;;27.71;26.33;94903.75;4731791;30;20842;-67
2021/05/11 10:49:20;;;;;;;1.67;0.90;;;;;;;27.95;25.58;94890.38;4742010;30;20043;-73
2021/05/11 10:51:45;;;;;;;4.28;1.20;;;;;;;28.18;26.22;94890.50;4757501;30;20028;-71
2021/05/11 10:54:13;;;;;;;2.83;0.95;;;;;;;28.24;26.27;94886.28;4745150;30;20494;-72
2021/05/11 10:56:44;;;;;;;2.67;0.95;;;;;;;28.31;26.67;94889.06;4741547;30;20043;-72
2021/05/11 11:01:52;;;;;;;3.22;0.88;;;;;;;28.24;26.87;94872.56;4742881;30;20067;-71
2021/05/11 11:04:20;;;;;;;1.95;0.75;;;;;;;28.21;27.39;94884.63;4743688;30;20056;-69
2021/05/11 11:07:00;;;;;;;1.52;0.98;;;;;;;28.14;26.54;94870.88;4747208;30;20036;-72
2021/05/11 11:09:32;;;;;;;3.00;0.70;;;;;;;28.16;25.54;94871.81;4738442;30;20174;-68
2021/05/11 11:11:58;;;;;;;2.65;1.00;;;;;;;28.11;26.36;94864.44;4735819;30;20414;-67
2021/05/11 11:14:23;;;;;;;2.65;0.68;;;;;;;28.12;26.58;94865.19;4744326;30;20040;-67
2021/05/11 11:16:59;;;;;;;2.03;0.65;;;;;;;28.00;26.57;94853.75;4736668;30;20557;-67
2021/05/11 11:19:24;;;;;;;2.33;0.80;;;;;;;28.12;26.39;94846.69;4734099;30;20055;-67
2021/05/11 11:24:31;;;;;;;1.35;0.70;;;;;;;28.11;26.78;94858.97;4737137;30;20059;-67
2021/05/11 11:26:57;;;;;;;1.65;0.80;;;;;;;28.11;26.96;94847.97;4732048;30;20039;-67
2021/05/11 11:29:23;;;;;;;1.05;0.52;;;;;;;28.08;26.92;94849.03;4730204;30;20048;-67
2021/05/11 11:31:49;;;;;;;2.10;0.60;;;;;;;28.04;27.03;94843.19;4730352;30;20032;-66
2021/05/11 11:34:22;;;;;;;1.80;0.73;;;;;;;28.07;26.93;94853.06;4745191;30;20032;-67
2021/05/11 11:36:55;;;;;;;1.58;0.70;;;;;;;28.04;27.03;94848.66;4734743;30;20064;-66
2021/05/11 11:39:30;;;;;;;1.50;0.80;;;;;;;27.99;26.84;94851.56;4730578;30;20035;-66
2021/05/11 11:42:00;;;;;;;1.10;0.60;;;;;;;27.98;27.23;94839.84;4734233;30;20063;-67
2021/05/11 11:44:27;;;;;;;;;;;;;;;27.88;27.15;94836.16;4747792;30;20067;-67
2021/05/11 11:47:04;;;;;;;1.40;0.80;;;;;;;27.86;27.05;94833.22;4737375;30;19954;-66
2021/05/11 11:49:43;;;;;;;3.90;1.10;;;;;;;27.69;27.41;94812.28;4731400;30;20040;-66
2021/05/11 11:52:13;;;;;;;1.35;0.70;;;;;;;27.75;27.42;94839.00;4745169;30;20489;-66
2021/05/11 12:00:25;;;;;;;1.33;0.60;;;;;;;27.65;27.57;94828.34;4735918;30;20574;-66
2021/05/11 12:03:00;;;;;;;2.03;0.60;;;;;;;27.61;27.75;94822.47;4733733;30;20180;-66
2021/05/11 12:05:29;;;;;;;1.90;0.80;;;;;;;27.60;27.83;94815.53;4732023;30;20033;-67
2021/05/11 12:10:30;;;;;;;1.35;0.70;;;;;;;27.50;27.92;94817.31;4758721;30;20044;-66
2021/05/11 12:12:56;;;;;;;1.33;0.68;;;;;;;27.49;28.00;94810.34;4739131;30;20048;-66
2021/05/11 12:15:22;;;;;;;1.63;0.60;;;;;;;27.50;28.14;94806.34;4739949;30;20043;-67
2021/05/11 12:18:02;;;;;;;1.02;0.60;;;;;;;27.44;28.01;94800.25;4740123;30;20210;-67
2021/05/11 12:20:28;;;;;;;1.63;0.80;;;;;;;27.44;28.14;94792.00;4731970;30;20033;-66
2021/05/11 12:23:03;;;;;;;2.97;0.70;;;;;;;27.24;28.16;94768.88;4692536;29;20540;-69
2021/05/11 12:25:28;;;;;;;2.15;0.88;;;;;;;27.37;27.92;94781.75;4738501;30;20186;-68
2021/05/11 12:27:54;;;;;;;2.45;1.30;;;;;;;27.33;27.54;94781.34;4733769;30;20123;-66
2021/05/11 12:30:19;;;;;;;2.40;0.75;;;;;;;27.28;27.78;94779.50;4740919;30;20028;-66
2021/05/11 12:32:45;;;;;;;1.80;0.63;;;;;;;27.32;27.69;94769.66;4747001;30;20494;-67
2021/05/11 12:35:14;;;;;;;1.00;0.60;;;;;;;27.29;27.39;94775.47;4746937;30;20098;-67
2021/05/11 12:37:43;;;;;;;;;;;;;;;27.24;27.52;94766.13;4746796;29;20032;-67
2021/05/11 12:40:21;;;;;;;1.38;0.60;;;;;;;27.24;27.58;94762.66;4745757;30;19922;-67
2021/05/11 12:42:46;;;;;;;1.58;0.70;;;;;;;27.19;27.30;94760.06;4745696;30;20036;-70
2021/05/11 12:45:14;;;;;;;0.65;0.50;;;;;;;27.21;28.19;94766.47;4745899;30;20040;-70
2021/05/11 12:47:47;;;;;;;1.55;0.70;;;;;;;27.21;28.21;94763.75;4746001;30;20036;-69
2021/05/11 12:50:17;;;;;;;2.53;0.80;;;;;;;27.26;28.17;94754.63;4745925;30;20036;-68
2021/05/11 12:52:42;;;;;;;0.98;0.57;;;;;;;27.20;28.28;94756.78;4745842;30;20159;-67
2021/05/11 12:55:18;;;;;;;1.45;0.75;;;;;;;27.26;28.31;94754.63;4744739;30;20032;-69
2021/05/11 12:57:54;;;;;;;2.10;0.60;;;;;;;27.06;28.64;94736.25;4746308;30;20572;-72
2021/05/11 13:00:34;;;;;;;1.02;0.68;;;;;;;27.26;28.68;94760.84;4742771;30;20429;-69
2021/05/11 13:26:51;;;;;;;1.10;0.85;;;;;;;27.34;28.45;94733.47;4740236;30;20047;-67
2021/05/11 13:30:04;;;;;;;1.52;0.60;;;;;;;27.38;28.42;94728.34;4739341;30;20058;-67
2021/05/11 13:32:11;;;;;;;2.33;0.80;;;;;;;27.38;28.28;94729.09;4744226;30;20047;-67
2021/05/11 13:34:36;;;;;;;2.05;0.68;;;;;;;27.39;28.34;94736.03;4745435;30;20036;-67
2021/05/11 13:37:02;;;;;;;1.30;0.60;;;;;;;27.43;28.41;94735.69;4747497;30;20829;-67
2021/05/11 13:39:27;;;;;;;1.85;0.80;;;;;;;27.20;28.37;94696.47;4745853;30;20114;-67
2021/05/11 13:41:53;;;;;;;2.88;0.80;;;;;;;27.46;28.42;94723.66;4737153;30;20853;-66
2021/05/11 13:44:18;;;;;;;2.30;0.88;;;;;;;27.45;28.26;94722.91;4758893;30;20036;-66
2021/05/11 13:46:44;;;;;;;2.17;1.17;;;;;;;27.47;28.21;94722.34;4775399;30;20538;-66
2021/05/11 13:49:09;;;;;;;2.65;0.90;;;;;;;27.50;28.44;94715.81;4742966;30;20043;-66
2021/05/11 13:51:35;;;;;;;1.30;0.80;;;;;;;27.51;28.46;94720.03;4735419;30;20079;-66
2021/05/11 13:54:03;;;;;;;1.35;0.80;;;;;;;27.48;28.25;94721.09;4745815;30;20425;-66
2021/05/11 13:56:37;;;;;;;1.38;0.73;;;;;;;27.50;28.40;94718.56;4745857;30;20028;-66
2021/05/11 14:04:19;;;;;;;1.35;0.70;;;;;;;27.50;28.12;94702.09;4771843;30;20099;-66
2021/05/11 14:06:45;;;;;;;1.30;0.80;;;;;;;27.26;27.95;94673.09;4724119;30;20052;-66
2021/05/11 14:09:10;;;;;;;2.30;1.15;;;;;;;27.22;27.97;94672.00;4730775;30;20032;-66
2021/05/11 14:11:36;;;;;;;1.60;0.60;;;;;;;27.48;28.21;94696.41;4761908;30;20055;-66
2021/05/11 14:14:02;;;;;;;1.38;0.70;;;;;;;27.50;28.03;94702.84;4747274;30;20403;-67
2021/05/11 14:16:27;;;;;;;1.38;0.90;;;;;;;27.46;28.16;94685.97;4747613;30;20066;-67
2021/05/11 14:18:53;;;;;;;2.03;0.80;;;;;;;27.50;28.16;94702.09;4738833;30;20036;-67
2021/05/11 14:21:18;;;;;;;1.05;0.68;;;;;;;27.51;28.16;94703.56;4739048;30;20029;-67
2021/05/11 14:23:44;;;;;;;1.48;0.73;;;;;;;27.53;28.11;94690.03;4751017;30;20072;-67
2021/05/11 14:26:09;;;;;;;0.80;0.60;;;;;;;27.51;27.89;94681.63;4738589;30;20623;-67
2021/05/11 14:28:35;;;;;;;1.42;0.90;;;;;;;27.53;27.80;94685.28;4734547;30;20033;-67
2021/05/11 14:31:00;;;;;;;2.33;0.90;;;;;;;27.54;27.82;94686.03;4734883;30;20043;-67
2021/05/11 14:33:26;;;;;;;1.20;0.70;;;;;;;27.52;27.86;94678.34;4732983;30;20040;-67
2021/05/11 14:35:51;;;;;;;1.42;0.85;;;;;;;27.49;27.82;94681.41;4736929;30;20040;-67
2021/05/11 14:38:17;;;;;;;1.08;0.70;;;;;;;27.48;27.90;94677.19;4735129;30;20032;-67
2021/05/11 14:40:42;;;;;;;1.15;0.68;;;;;;;27.43;28.30;94686.34;4734325;30;20036;-67
2021/05/11 14:43:07;;;;;;;1.60;0.82;;;;;;;27.47;28.02;94681.19;4734105;30;20178;-68
2021/05/11 14:45:33;;;;;;;2.58;0.70;;;;;;;27.48;28.61;94688.16;4747784;30;20032;-72
2021/05/11 14:47:59;;;;;;;2.35;0.77;;;;;;;27.46;28.54;94675.00;4747655;30;20051;-71
2021/05/11 14:50:24;;;;;;;2.00;0.70;;;;;;;27.45;28.30;94678.28;4746577;30;20051;-69
2021/05/11 14:52:53;;;;;;;2.42;0.90;;;;;;;27.46;28.07;94679.75;4739336;30;20188;-68
2021/05/11 14:55:23;;;;;;;1.20;0.70;;;;;;;27.44;27.90;94674.06;4735196;30;20109;-71
2021/05/11 14:57:48;;;;;;;;;;;;;;;27.39;27.30;94672.22;4738403;30;20032;-71
2021/05/11 15:00:14;;;;;;;5.00;1.03;;;;;;;27.43;27.82;94665.13;4738352;30;19929;-69
2021/05/11 15:02:40;;;;;;;1.20;0.60;;;;;;;27.44;27.46;94671.31;4738802;30;20301;-66
2021/05/11 15:05:06;;;;;;;1.70;0.80;;;;;;;27.40;27.42;94665.47;4759524;30;20426;-68
2021/05/11 15:07:32;;;;;;;2.10;0.70;;;;;;;27.40;27.00;94660.00;4744692;30;20043;-68
2021/05/11 15:09:57;;;;;;;0.95;0.70;;;;;;;27.40;27.57;94660.00;4759430;30;20642;-68
2021/05/11 15:12:23;;;;;;;3.38;1.00;;;;;;;27.43;27.01;94654.13;4759162;30;20072;-68
2021/05/11 15:14:48;;;;;;;1.65;1.02;;;;;;;27.41;27.00;94650.47;4745174;30;20400;-68
2021/05/11 15:19:52;;;;;;;1.40;0.65;;;;;;;27.49;26.70;94651.25;4746591;30;20946;-67
2021/05/11 15:22:18;;;;;;;;;;;;;;;27.46;26.93;94652.31;4741768;30;20028;-68
2021/05/11 15:24:43;;;;;;;1.83;0.80;;;;;;;27.34;26.65;94634.75;4730323;30;19922;-67
2021/05/11 15:27:09;;;;;;;2.28;0.73;;;;;;;27.44;26.88;94652.13;4743500;30;20041;-67
2021/05/11 15:29:34;;;;;;;2.65;0.90;;;;;;;27.26;26.32;94617.50;4753026;30;20036;-67
2021/05/11 15:32:00;;;;;;;1.52;0.70;;;;;;;27.50;26.94;94641.75;4728750;30;20036;-67
2021/05/11 15:34:27;;;;;;;2.92;0.80;;;;;;;27.51;26.98;94648.69;4758056;30;20040;-68
2021/05/11 15:36:53;;;;;;;2.08;0.88;;;;;;;27.51;26.95;94643.22;4747815;30;20028;-67
2021/05/11 15:39:18;;;;;;;3.63;0.95;;;;;;;27.49;26.64;94640.25;4774775;30;20032;-67
2021/05/11 15:41:44;;;;;;;1.80;0.85;;;;;;;27.37;26.36;94644.63;4745806;30;20044;-67
2021/05/11 15:44:09;;;;;;;4.68;1.10;;;;;;;27.34;26.64;94651.19;4747577;30;20137;-67
2021/05/11 15:46:35;;;;;;;2.60;0.90;;;;;;;27.38;26.93;94640.59;4747401;30;20501;-67